Aeroporto :
LOGIN :

Iscrizione | Disclaimer

   EN    FR    IT 

 










Sommario :    VFR   VFR Marginale   IFR   IFR Intensivo   IFR Molto Intensivo
Visibilità : 
Base nubi : 
>= 8 km
>= 3000ft
5 / 8 km
1000 / 3000 ft
1500m / 5 km
500 / 1000 ft
800 / 1500m
200 / 500 ft
< 800m
< 200 ft
Simboli :   Temporali  Nebbia  Neve Forte  Precipitazioni Forti  Vento > 20 kt
SIGMETs :   Varie  Temporali  Ghiacco  Turbolenza  Onda orograficha  Ceneri Vulcaniche






- Altitudine del aeroporto : 308 ft
- Codice IATA : POZ


EPPO - Poznan-Lawica

ULTIMO METAR :
  • 272330Z 04003KT 360V080 2700 BR BKN048 00/M00 Q1000

METARs OBSOLETI :
  • 272300Z 10002KT 4000 BR BKN048 M00/M01 Q1000
  • 272230Z 10003KT 4600 BR BKN046 M00/M01 Q1000
  • 272200Z 11001KT 5000 BR BKN039 M00/M01 Q1000
  • 272130Z 13003KT 5000 BR BKN042 M00/M01 Q1000
  • 272100Z 12004KT 7000 NSC M01/M01 Q0999

TAF TAF EPPO
Valido dal 27 a 18 ore il 28 a 18 ore UTC


271730Z 2718/2818 VRB02KT 9999 SCT025
PROB40
TEMPO 2720/2809 3000 BR BKN005
BECMG 2803/2806 27015G25KT
TEMPO 2809/2818 2000 SHRASN BKN005 BKN012CB



MetMap, La meteo Aeronautica in un colpo d'occhio ! - Copyright ORBIFLY Dicembre 2007 - Disclaimer

ORBIFLY MET'MAP TEAM :

Programmazione e sviluppo : Alexandra Zaïnal
Concezione : Baudouin d'Aumeries
Aiuto per la programmazione : Marc-Olivier Méhu
Supporto tecnico e logistico : Manuel Goepfert
Aiuto per la traduzione : Arnaldo La Scala

Contatto : metmap@orbifly.com




FONTI E CREDITI :

   NOAA